»·PEaware :: FDX427 KSFO-KRNO

FDX427 :: KSFO-KRNO

FLIGHT INFORMATION

Flight Status: Arrived
Operator:
Federal Express
More flights by this operator :: More flights under this callsign
Pilot: Ben F. (13029)
Aircraft: BOEING 757-200
(B752)
More flights by this aircraft type
Origin: KSFO San Francisco Intl
United States
Destination: KRNO Reno/Tahoe Intl
United States
More flights between these airports :: More routes between these airports
Route: CIITY3 ORRCA HOBOA WALAR
File this flight plan on PilotEdge
Remarks: PBN / A1B3B4B5C4D4O4 DOF / 190202 REG / N538SB OPR / FDX PER / D RMK / TCAS SIMBRIEF
Altitude:
(Current/Filed)
29,000ft
Speed:
(Current/Filed)
402kts
Departed: 02-Feb-19 10:46 AM
Arrived: 02-Feb-19 11:34 AM
Distance/Time
Traveled:
167nm/0:48
Distance/Time
To Go:
Arrived

Flight Plot

Page will automatically refresh every two minutes.

Flight plan parsing failed; only flown route is shown


Map Options




Map Legend


Flown Route
Filed Route
Departure Airport
Arrival Airport
Navaid (VOR, NDB)
Fix

Horizontal Profiles

Position Reports

Time Latitude Longitude Heading Altitude Ground
Speed
02-Feb-19 10:14 37.636163 -122.387636 60 17ft 0kts
02-Feb-19 10:15 37.636163 -122.387636 60 17ft 0kts
02-Feb-19 10:16 37.636163 -122.387636 60 17ft 0kts
02-Feb-19 10:17 37.636163 -122.387636 60 17ft 0kts
02-Feb-19 10:18 37.636163 -122.387636 60 17ft 0kts
02-Feb-19 10:19 37.636163 -122.387636 60 17ft 0kts
02-Feb-19 10:20 37.636163 -122.387636 60 17ft 0kts
02-Feb-19 10:20 37.636163 -122.387636 60 17ft 0kts
02-Feb-19 10:22 37.636163 -122.387636 60 17ft 0kts
02-Feb-19 10:23 37.636163 -122.387636 60 17ft 0kts
02-Feb-19 10:23 37.636163 -122.387636 60 17ft 0kts
02-Feb-19 10:24 37.636163 -122.387636 60 17ft 0kts
02-Feb-19 10:26 37.636163 -122.387636 60 17ft 0kts
02-Feb-19 10:26 37.636163 -122.387636 60 17ft 0kts
02-Feb-19 10:27 37.636163 -122.387636 60 17ft 0kts
02-Feb-19 10:28 37.636163 -122.387636 60 17ft 0kts
02-Feb-19 10:29 37.636163 -122.387636 60 17ft 0kts
02-Feb-19 10:30 37.636163 -122.387636 60 17ft 0kts
02-Feb-19 10:31 37.636163 -122.387636 60 17ft 0kts
02-Feb-19 10:32 37.635968 -122.388185 91 18ft 2kts
02-Feb-19 10:33 37.636204 -122.388666 148 18ft 0kts
02-Feb-19 10:34 37.636203 -122.388666 148 18ft 0kts
02-Feb-19 10:35 37.636203 -122.388666 148 18ft 0kts
02-Feb-19 10:36 37.636203 -122.388666 148 18ft 0kts
02-Feb-19 10:37 37.636203 -122.388666 148 18ft 0kts
02-Feb-19 10:38 37.636203 -122.388666 148 18ft 0kts
02-Feb-19 10:39 37.636203 -122.388666 148 18ft 0kts
02-Feb-19 10:40 37.635196 -122.388098 193 18ft 8kts
02-Feb-19 10:41 37.633192 -122.391712 187 18ft 14kts
02-Feb-19 10:42 37.631120 -122.393369 239 18ft 22kts
02-Feb-19 10:43 37.629465 -122.393267 157 19ft 6kts
02-Feb-19 10:44 37.628373 -122.392489 120 21ft 0kts
02-Feb-19 10:45 37.620651 -122.372182 103 728ft 127kts
02-Feb-19 10:46 37.615174 -122.332549 124 1999ft 109kts
02-Feb-19 10:49 37.540779 -122.184078 119 5360ft 186kts
02-Feb-19 10:50 37.555721 -122.131563 51 8106ft 194kts
02-Feb-19 10:51 37.603454 -122.074749 46 9369ft 285kts
02-Feb-19 10:52 37.667452 -122.000814 45 11934ft 329kts
02-Feb-19 10:53 37.736326 -121.921199 43 14844ft 346kts
02-Feb-19 10:54 37.825855 -121.869269 21 17474ft 365kts
02-Feb-19 10:55 37.921932 -121.821368 21 19938ft 380kts
02-Feb-19 10:56 38.020520 -121.772152 21 22211ft 395kts
02-Feb-19 10:57 38.124552 -121.720075 21 23651ft 430kts
02-Feb-19 10:58 38.241809 -121.661178 21 25029ft 465kts
02-Feb-19 10:59 38.361875 -121.595708 22 26959ft 479kts
02-Feb-19 11:00 38.476138 -121.509427 45 28723ft 490kts
02-Feb-19 11:01 38.573936 -121.386526 46 29024ft 493kts
02-Feb-19 11:02 38.668692 -121.265166 47 29032ft 492kts
02-Feb-19 11:03 38.765422 -121.140737 47 29042ft 501kts
02-Feb-19 11:04 38.859785 -121.018913 48 27349ft 485kts
02-Feb-19 11:05 38.953347 -120.897605 49 25254ft 473kts
02-Feb-19 11:06 39.038430 -120.786901 49 24331ft 430kts
02-Feb-19 11:07 39.118882 -120.681775 49 22576ft 415kts
02-Feb-19 11:08 39.197773 -120.578879 49 20761ft 401kts
02-Feb-19 11:09 39.275275 -120.481021 48 18488ft 389kts
02-Feb-19 11:10 39.348850 -120.384459 48 16821ft 373kts
02-Feb-19 11:11 39.417080 -120.292013 53 15645ft 358kts
02-Feb-19 11:12 39.480522 -120.193782 54 15640ft 361kts
02-Feb-19 11:13 39.543208 -120.098464 53 15662ft 362kts
02-Feb-19 11:14 39.606596 -120.003131 52 15651ft 362kts
02-Feb-19 11:15 39.679390 -119.913940 23 15660ft 372kts
02-Feb-19 11:16 39.782017 -119.900114 3 15651ft 374kts
02-Feb-19 11:17 39.885597 -119.893455 3 14839ft 370kts
02-Feb-19 11:18 39.980356 -119.887548 3 12334ft 322kts
02-Feb-19 11:19 40.063647 -119.869427 40 9989ft 303kts
02-Feb-19 11:20 40.069233 -119.783390 141 9982ft 232kts
02-Feb-19 11:21 40.009883 -119.766535 180 9974ft 224kts
02-Feb-19 11:22 39.950098 -119.767852 180 9975ft 214kts
02-Feb-19 11:23 39.890525 -119.768155 179 9788ft 213kts
02-Feb-19 11:24 39.831903 -119.768271 179 9045ft 201kts
02-Feb-19 11:25 39.782587 -119.768488 179 8958ft 153kts
02-Feb-19 11:26 39.740488 -119.768575 179 7776ft 151kts
02-Feb-19 11:27 39.700913 -119.768661 179 7360ft 134kts
02-Feb-19 11:28 39.663967 -119.768745 179 7373ft 133kts
02-Feb-19 11:29 39.626989 -119.768854 179 6742ft 133kts
02-Feb-19 11:30 39.590443 -119.768965 180 6022ft 134kts
02-Feb-19 11:31 39.553339 -119.769078 180 5299ft 134kts
02-Feb-19 11:32 39.516327 -119.769073 181 4583ft 136kts
02-Feb-19 11:33 39.494470 -119.769375 182 4421ft 26kts
02-Feb-19 11:34 39.492645 -119.770378 241 4420ft 0kts
02-Feb-19 11:35 39.493934 -119.771551 357 4421ft 13kts
02-Feb-19 11:36 39.497005 -119.771527 0 4421ft 9kts
02-Feb-19 11:37 39.501935 -119.771512 359 4421ft 28kts
02-Feb-19 11:38 39.508980 -119.771833 292 4420ft 15kts
02-Feb-19 11:39 39.509220 -119.775555 270 4421ft 0kts
02-Feb-19 11:40 39.509220 -119.775554 270 4421ft 0kts
02-Feb-19 11:43 39.509220 -119.775554 270 4421ft 0kts
02-Feb-19 11:44 39.509220 -119.775554 270 4421ft 0kts
02-Feb-19 11:45 39.509220 -119.775554 270 4421ft 0kts
02-Feb-19 11:46 39.509220 -119.775554 270 4421ft 0kts
02-Feb-19 11:47 39.509220 -119.775554 270 4421ft 0kts

Navigation Log

Ident Type
Flight plan parsing failed, navigation log unavailable